createdAt,value
2022-12-13T00:00:30.491Z,101522.13
2022-12-13T00:02:56.837Z,101521.25
2022-12-13T00:05:23.328Z,101519.50
2022-12-13T00:07:49.719Z,101516.97
2022-12-13T00:10:16.177Z,101518.69
2022-12-13T00:12:43.005Z,101519.50
2022-12-13T00:15:09.822Z,101528.03
2022-12-13T00:17:36.218Z,101513.50
2022-12-13T00:20:03.261Z,101505.84
2022-12-13T00:22:29.622Z,101501.56
2022-12-13T00:24:56.673Z,101504.16
2022-12-13T00:27:23.082Z,101502.47
2022-12-13T00:29:49.493Z,101501.63
2022-12-13T00:32:16.898Z,101496.50
2022-12-13T00:34:43.261Z,101499.94
2022-12-13T00:37:09.575Z,101495.63
2022-12-13T00:39:35.977Z,101493.94
2022-12-13T00:42:02.357Z,101494.78
2022-12-13T00:44:28.683Z,101490.53
2022-12-13T00:46:55.124Z,101484.53
2022-12-13T00:49:21.583Z,101487.09
2022-12-13T00:51:49.461Z,101484.50
2022-12-13T00:54:16.653Z,101490.50
2022-12-13T00:56:43.053Z,101483.66
2022-12-13T00:59:13.957Z,101481.09
2022-12-13T01:01:40.512Z,101475.16
2022-12-13T01:04:07.766Z,101481.16
2022-12-13T01:06:39.746Z,101483.75
2022-12-13T01:09:10.089Z,101476.88
2022-12-13T01:11:36.412Z,101473.44
2022-12-13T01:14:02.984Z,101476.88
2022-12-13T01:16:29.465Z,101482.00
2022-12-13T01:18:57.872Z,101482.00
2022-12-13T01:21:24.233Z,101488.00
2022-12-13T01:23:50.605Z,101482.06
2022-12-13T01:26:21.059Z,101487.22
2022-12-13T01:28:48.673Z,101485.56
2022-12-13T01:31:18.599Z,101485.59
2022-12-13T01:33:45.444Z,101482.19
2022-12-13T01:36:15.322Z,101477.06
2022-12-13T01:38:42.122Z,101477.91
2022-12-13T01:41:17.475Z,101477.88
2022-12-13T01:43:44.225Z,101470.19
2022-12-13T01:46:11.840Z,101468.53
2022-12-13T01:48:42.265Z,101478.78
2022-12-13T01:51:12.621Z,101471.97
2022-12-13T01:53:42.646Z,101477.13
2022-12-13T01:56:16.572Z,101476.31
2022-12-13T01:58:44.704Z,101480.59
2022-12-13T02:01:11.353Z,101473.72
2022-12-13T02:03:37.890Z,101477.13
2022-12-13T02:06:12.857Z,101478.84
2022-12-13T02:08:41.403Z,101479.72
2022-12-13T02:11:09.831Z,101480.56
2022-12-13T02:13:37.873Z,101477.19
2022-12-13T02:16:34.269Z,101472.09
2022-12-13T02:19:30.909Z,101472.97
2022-12-13T02:22:22.257Z,101472.97
2022-12-13T02:25:18.780Z,101484.09
2022-12-13T02:27:48.038Z,101478.97
2022-12-13T02:30:22.483Z,101478.97
2022-12-13T02:33:21.974Z,101479.84
2022-12-13T02:35:59.677Z,101475.56
2022-12-13T02:38:29.455Z,101471.31
2022-12-13T02:41:06.006Z,101469.56
2022-12-13T02:43:47.949Z,101461.03
2022-12-13T02:46:19.913Z,101453.34
2022-12-13T02:48:50.337Z,101458.47
2022-12-13T02:51:18.524Z,101455.94
2022-12-13T02:53:45.242Z,101459.34
2022-12-13T02:56:11.837Z,101460.19
2022-12-13T02:58:44.896Z,101455.06
2022-12-13T03:01:32.540Z,101461.91
2022-12-13T03:04:58.590Z,101461.06
2022-12-13T03:07:33.718Z,101449.09
2022-12-13T03:10:11.633Z,101457.59
2022-12-13T03:13:09.319Z,101458.47
2022-12-13T03:15:45.315Z,101453.34
2022-12-13T03:18:19.530Z,101456.78
2022-12-13T03:20:56.273Z,101449.09
2022-12-13T03:23:22.821Z,101446.53
2022-12-13T03:25:53.501Z,101450.78
2022-12-13T03:28:20.338Z,101450.81
2022-12-13T03:30:46.949Z,101455.91
2022-12-13T03:33:13.579Z,101443.13
2022-12-13T03:35:44.739Z,101449.97
2022-12-13T03:38:22.941Z,101456.81
2022-12-13T03:40:55.907Z,101451.69
2022-12-13T03:43:23.202Z,101453.41
2022-12-13T03:45:51.479Z,101457.69
2022-12-13T03:48:22.196Z,101455.13
2022-12-13T03:50:50.016Z,101446.56
2022-12-13T03:53:23.112Z,101448.31
2022-12-13T03:56:04.586Z,101439.78
2022-12-13T03:58:36.134Z,101441.47
2022-12-13T04:01:05.647Z,101447.50
2022-12-13T04:03:32.009Z,101447.50
2022-12-13T04:05:58.389Z,101454.34
2022-12-13T04:08:24.888Z,101444.09
2022-12-13T04:10:51.345Z,101444.94
2022-12-13T04:13:32.649Z,101446.66
2022-12-13T04:15:59.797Z,101447.53
2022-12-13T04:18:26.325Z,101456.94
2022-12-13T04:20:52.666Z,101452.66
2022-12-13T04:23:19.008Z,101448.41
2022-12-13T04:25:46.160Z,101450.13
2022-12-13T04:28:12.636Z,101453.56
2022-12-13T04:30:48.488Z,101443.31
2022-12-13T04:33:21.088Z,101445.88
2022-12-13T04:35:48.322Z,101442.47
2022-12-13T04:38:15.834Z,101446.75
2022-12-13T04:40:42.481Z,101443.28
2022-12-13T04:43:08.982Z,101434.75
2022-12-13T04:45:35.842Z,101435.56
2022-12-13T04:48:02.217Z,101437.28
2022-12-13T04:50:28.633Z,101438.13
2022-12-13T04:52:55.053Z,101433.03
2022-12-13T04:55:21.422Z,101427.91
2022-12-13T04:57:48.081Z,101432.19
2022-12-13T05:00:14.954Z,101431.31
2022-12-13T05:02:41.830Z,101424.50
2022-12-13T05:05:09.835Z,101422.78
2022-12-13T05:07:42.035Z,101415.94
2022-12-13T05:10:09.422Z,101417.66
2022-12-13T05:12:35.875Z,101410.81
2022-12-13T05:15:02.236Z,101418.50
2022-12-13T05:17:28.626Z,101409.13
2022-12-13T05:19:55.010Z,101400.59
2022-12-13T05:22:21.468Z,101399.81
2022-12-13T05:24:48.720Z,101397.25
2022-12-13T05:27:25.676Z,101397.25
2022-12-13T05:30:02.105Z,101399.81
2022-12-13T05:32:33.650Z,101404.09
2022-12-13T05:35:09.537Z,101398.09
2022-12-13T05:37:35.881Z,101402.41
2022-12-13T05:40:02.346Z,101400.69
2022-12-13T05:42:28.758Z,101402.41
2022-12-13T05:44:55.299Z,101393.88
2022-12-13T05:47:21.663Z,101394.75
2022-12-13T05:49:48.005Z,101397.28
2022-12-13T05:52:22.102Z,101388.78
2022-12-13T05:54:57.288Z,101392.19
2022-12-13T05:57:27.596Z,101388.78
2022-12-13T05:59:54.052Z,101394.75
2022-12-13T06:02:21.783Z,101394.78
2022-12-13T06:04:48.692Z,101399.03
2022-12-13T06:07:15.265Z,101398.16
2022-12-13T06:09:42.246Z,101391.38
2022-12-13T06:12:31.012Z,101395.63
2022-12-13T06:15:01.010Z,101396.50
2022-12-13T06:17:35.704Z,101400.72
2022-12-13T06:20:03.676Z,101396.50
2022-12-13T06:22:49.978Z,101401.59
2022-12-13T06:25:31.542Z,101399.88
2022-12-13T06:28:01.655Z,101394.75
2022-12-13T06:30:31.246Z,101384.53
2022-12-13T06:32:57.798Z,101390.47
2022-12-13T06:35:27.937Z,101389.63
2022-12-13T06:38:01.217Z,101388.78
2022-12-13T06:40:28.498Z,101381.13
2022-12-13T06:42:54.995Z,101385.38
2022-12-13T06:45:21.450Z,101379.41
2022-12-13T06:47:47.907Z,101372.56
2022-12-13T06:50:15.086Z,101388.81
2022-12-13T06:52:41.509Z,101383.69
2022-12-13T06:55:08.297Z,101392.22
2022-12-13T06:57:34.793Z,101393.06
2022-12-13T07:00:03.373Z,101393.06
2022-12-13T07:02:29.872Z,101394.75
2022-12-13T07:04:56.738Z,101395.59
2022-12-13T07:07:25.098Z,101404.16
2022-12-13T07:09:51.780Z,101409.28
2022-12-13T07:12:19.271Z,101403.28
2022-12-13T07:14:46.155Z,101412.69
2022-12-13T07:17:12.791Z,101404.97
2022-12-13T07:20:01.146Z,101404.13
2022-12-13T07:22:27.807Z,101404.13
2022-12-13T07:24:54.127Z,101404.94
2022-12-13T07:27:20.485Z,101400.72
2022-12-13T07:29:46.864Z,101402.44
2022-12-13T07:32:13.242Z,101404.13
2022-12-13T07:34:39.566Z,101416.06
2022-12-13T07:37:05.893Z,101420.28
2022-12-13T07:39:32.358Z,101425.44
2022-12-13T07:41:58.669Z,101413.47
2022-12-13T07:44:25.132Z,101419.47
2022-12-13T07:46:51.946Z,101426.31
2022-12-13T07:49:18.621Z,101428.84
2022-12-13T07:51:44.991Z,101429.69
2022-12-13T07:54:11.456Z,101424.56
2022-12-13T07:56:37.991Z,101428.84
2022-12-13T07:59:04.430Z,101428.81
2022-12-13T08:01:34.721Z,101427.91
2022-12-13T08:04:02.439Z,101426.19
2022-12-13T08:06:28.832Z,101436.41
2022-12-13T08:08:56.874Z,101436.41
2022-12-13T08:11:23.323Z,101438.09
2022-12-13T08:13:49.789Z,101431.22
2022-12-13T08:16:28.282Z,101437.19
2022-12-13T08:19:01.904Z,101434.63
2022-12-13T08:21:58.276Z,101443.16
2022-12-13T08:24:29.685Z,101445.69
2022-12-13T08:27:01.187Z,101443.09
2022-12-13T08:29:34.340Z,101441.38
2022-12-13T08:32:07.913Z,101443.06
2022-12-13T08:34:34.573Z,101443.84
2022-12-13T08:37:01.947Z,101447.19
2022-12-13T08:39:30.150Z,101441.97
2022-12-13T08:41:56.456Z,101444.47
2022-12-13T08:44:22.881Z,101446.09
2022-12-13T08:46:49.262Z,101443.41
2022-12-13T08:49:15.803Z,101445.88
2022-12-13T08:51:42.401Z,101450.94
2022-12-13T08:54:10.442Z,101442.31
2022-12-13T08:56:37.261Z,101438.78
2022-12-13T08:59:04.029Z,101437.75
2022-12-13T09:01:30.902Z,101438.31
2022-12-13T09:03:57.261Z,101444.16
2022-12-13T09:06:23.753Z,101444.69
2022-12-13T09:08:53.032Z,101444.19
2022-12-13T09:11:23.825Z,101442.34
2022-12-13T09:14:01.727Z,101436.84
2022-12-13T09:16:30.452Z,101434.72
2022-12-13T09:19:06.596Z,101433.03
2022-12-13T09:21:50.647Z,101436.81
2022-12-13T09:24:23.861Z,101436.28
2022-12-13T09:26:56.934Z,101439.81
2022-12-13T09:29:24.223Z,101432.69
2022-12-13T09:31:53.237Z,101432.19
2022-12-13T09:34:20.098Z,101433.03
2022-12-13T09:36:46.592Z,101437.41
2022-12-13T09:39:13.246Z,101422.84
2022-12-13T09:41:51.956Z,101417.78
2022-12-13T09:44:46.519Z,101418.81
2022-12-13T09:47:25.864Z,101412.84
2022-12-13T09:49:53.811Z,101406.44
2022-12-13T09:52:23.532Z,101415.19
2022-12-13T09:54:55.076Z,101410.41
2022-12-13T09:57:32.120Z,101403.84
2022-12-13T10:00:02.472Z,101405.91
2022-12-13T10:02:31.881Z,101401.31
2022-12-13T10:05:21.985Z,101405.81
2022-12-13T10:07:52.990Z,101394.34
2022-12-13T10:10:19.601Z,101382.22
2022-12-13T10:12:53.277Z,101391.88
2022-12-13T10:15:22.752Z,101388.81
2022-12-13T10:17:55.443Z,101392.16
2022-12-13T10:20:25.988Z,101384.22
2022-12-13T10:23:29.888Z,101370.69
2022-12-13T10:25:51.579Z,101378.81
2022-12-13T10:28:24.322Z,101380.91
2022-12-13T10:30:50.865Z,101370.03
2022-12-13T10:33:27.097Z,101361.88
2022-12-13T10:36:30.038Z,101374.06
2022-12-13T10:38:56.794Z,101369.50
2022-12-13T10:41:29.328Z,101363.97
2022-12-13T10:44:17.189Z,101360.94
2022-12-13T10:46:50.297Z,101346.03
2022-12-13T10:49:26.754Z,101344.06
2022-12-13T10:51:54.215Z,101349.97
2022-12-13T10:54:29.933Z,101347.84
2022-12-13T10:57:07.247Z,101351.22
2022-12-13T10:59:38.973Z,101354.19
2022-12-13T11:02:33.781Z,101349.97
2022-12-13T11:05:23.120Z,101346.84
2022-12-13T11:07:50.250Z,101342.84
2022-12-13T11:10:29.789Z,101343.09
2022-12-13T11:13:01.841Z,101342.03
2022-12-13T11:15:30.887Z,101344.50
2022-12-13T11:18:01.248Z,101340.34
2022-12-13T11:20:33.850Z,101334.19
2022-12-13T11:23:07.569Z,101342.88
2022-12-13T11:25:40.581Z,101334.94
2022-12-13T11:28:37.074Z,101350.91
2022-12-13T11:31:06.293Z,101347.94
2022-12-13T11:34:01.799Z,101345.94
2022-12-13T11:37:03.145Z,101339.44
2022-12-13T11:39:35.812Z,101335.09
2022-12-13T11:42:29.528Z,101327.25
2022-12-13T11:45:11.483Z,101327.94
2022-12-13T11:47:51.249Z,101313.22
2022-12-13T11:50:40.519Z,101303.44
2022-12-13T11:53:22.108Z,101309.84
2022-12-13T11:56:05.618Z,101300.47
2022-12-13T11:59:02.590Z,101307.88
2022-12-13T12:01:40.521Z,101298.75
2022-12-13T12:04:27.938Z,101293.69
2022-12-13T12:07:30.555Z,101292.28
2022-12-13T12:09:59.034Z,101280.50
2022-12-13T12:12:33.554Z,101285.78
2022-12-13T12:15:16.384Z,101280.47
2022-12-13T12:17:43.833Z,101283.69
2022-12-13T12:20:24.200Z,101287.50
2022-12-13T12:23:05.969Z,101291.16
2022-12-13T12:25:38.433Z,101292.44
2022-12-13T12:28:54.214Z,101302.97
2022-12-13T12:31:58.399Z,101297.84
2022-12-13T12:34:43.525Z,101307.66
2022-12-13T12:37:22.241Z,101302.28
2022-12-13T12:40:07.836Z,101296.09
2022-12-13T12:43:14.022Z,101302.50
2022-12-13T12:45:56.965Z,101307.09
2022-12-13T12:48:56.471Z,101299.47
2022-12-13T12:51:42.370Z,101297.66
2022-12-13T12:54:39.819Z,101297.34
2022-12-13T12:57:20.322Z,101294.16
2022-12-13T13:00:04.505Z,101289.94
2022-12-13T13:02:40.109Z,101293.06
2022-12-13T13:05:15.353Z,101292.13
2022-12-13T13:07:51.469Z,101280.75
2022-12-13T13:10:26.153Z,101278.75
2022-12-13T13:13:12.666Z,101269.00
2022-12-13T13:15:39.716Z,101276.69
2022-12-13T13:18:44.967Z,101262.66
2022-12-13T13:21:23.510Z,101271.63
2022-12-13T13:24:02.100Z,101266.66
2022-12-13T13:26:34.263Z,101268.72
2022-12-13T13:29:26.631Z,101265.88
2022-12-13T13:32:12.495Z,101273.44
2022-12-13T13:35:00.845Z,101271.25
2022-12-13T13:37:44.166Z,101270.06
2022-12-13T13:40:13.386Z,101275.38
2022-12-13T13:42:56.979Z,101270.41
2022-12-13T13:45:27.471Z,101260.19
2022-12-13T13:48:16.655Z,101256.94
2022-12-13T13:51:20.415Z,101251.94
2022-12-13T13:54:18.445Z,101239.09
2022-12-13T13:56:45.489Z,101244.47
2022-12-13T13:59:47.677Z,101243.66
2022-12-13T14:02:50.431Z,101239.41
2022-12-13T14:05:54.979Z,101226.53
2022-12-13T14:08:42.272Z,101243.06
2022-12-13T14:11:33.043Z,101230.97
2022-12-13T14:14:05.385Z,101237.00
2022-12-13T14:16:48.872Z,101237.00
2022-12-13T14:19:41.263Z,101237.19
2022-12-13T14:22:18.933Z,101240.81
2022-12-13T14:25:25.194Z,101239.25
2022-12-13T14:28:09.852Z,101235.94
2022-12-13T14:30:41.699Z,101239.44
2022-12-13T14:33:20.489Z,101224.09
2022-12-13T14:35:55.609Z,101226.84
2022-12-13T14:38:24.835Z,101226.19
2022-12-13T14:40:55.493Z,101224.56
2022-12-13T14:43:30.118Z,101218.63
2022-12-13T14:45:58.900Z,101219.59
2022-12-13T14:48:27.950Z,101224.84
2022-12-13T14:50:55.358Z,101219.75
2022-12-13T14:53:34.169Z,101231.03
2022-12-13T14:56:18.720Z,101224.25
2022-12-13T14:59:03.408Z,101233.84
2022-12-13T15:01:34.934Z,101232.25
2022-12-13T15:04:30.785Z,101227.25
2022-12-13T15:07:02.655Z,101217.88
2022-12-13T15:09:30.567Z,101215.38
2022-12-13T15:12:14.984Z,101210.31
2022-12-13T15:14:48.489Z,101206.19
2022-12-13T15:17:30.151Z,101200.22
2022-12-13T15:19:56.719Z,101200.34
2022-12-13T15:22:23.312Z,101190.91
2022-12-13T15:24:57.226Z,101198.81
2022-12-13T15:27:24.491Z,101193.66
2022-12-13T15:29:52.283Z,101195.50
2022-12-13T15:32:19.793Z,101189.56
2022-12-13T15:34:49.758Z,101197.28
2022-12-13T15:37:28.180Z,101188.66
2022-12-13T15:40:00.420Z,101176.81
2022-12-13T15:42:37.899Z,101187.19
2022-12-13T15:45:15.851Z,101178.59
2022-12-13T15:47:48.165Z,101182.13
2022-12-13T15:50:35.153Z,101177.88
2022-12-13T15:53:27.082Z,101170.22
2022-12-13T15:55:53.733Z,101167.66
2022-12-13T15:58:26.006Z,101159.97
2022-12-13T16:00:53.066Z,101163.41
2022-12-13T16:03:24.461Z,101163.50
2022-12-13T16:05:54.760Z,101156.72
2022-12-13T16:08:38.213Z,101159.38
2022-12-13T16:11:06.039Z,101159.38
2022-12-13T16:13:37.931Z,101157.69
2022-12-13T16:16:30.470Z,101152.56
2022-12-13T16:18:59.057Z,101143.16
2022-12-13T16:21:26.540Z,101156.13
2022-12-13T16:23:53.098Z,101164.75
2022-12-13T16:26:28.031Z,101155.34
2022-12-13T16:28:58.528Z,101147.75
2022-12-13T16:31:27.831Z,101151.22
2022-12-13T16:33:54.249Z,101147.06
2022-12-13T16:36:20.618Z,101145.34
2022-12-13T16:38:47.067Z,101149.66
2022-12-13T16:41:14.682Z,101136.81
2022-12-13T16:43:53.511Z,101131.75
2022-12-13T16:47:11.828Z,101129.19
2022-12-13T16:49:18.561Z,101127.47
2022-12-13T16:51:48.278Z,101135.28
2022-12-13T16:54:15.427Z,101122.41
2022-12-13T16:56:41.829Z,101129.38
2022-12-13T16:59:18.519Z,101122.59
2022-12-13T17:01:46.002Z,101117.47
2022-12-13T17:04:20.100Z,101118.34
2022-12-13T17:06:48.881Z,101114.94
2022-12-13T17:09:15.294Z,101125.25
2022-12-13T17:11:42.057Z,101118.41
2022-12-13T17:14:08.453Z,101128.81
2022-12-13T17:16:34.975Z,101135.72
2022-12-13T17:19:01.536Z,101135.72
2022-12-13T17:21:29.674Z,101135.72
2022-12-13T17:23:57.733Z,101130.66
2022-12-13T17:26:24.396Z,101135.88
2022-12-13T17:28:51.053Z,101132.44
2022-12-13T17:31:19.103Z,101137.50
2022-12-13T17:33:45.769Z,101133.97
2022-12-13T17:36:14.742Z,101133.97
2022-12-13T17:38:45.741Z,101136.56
2022-12-13T17:41:13.002Z,101132.25
2022-12-13T17:43:39.768Z,101123.72
2022-12-13T17:46:15.308Z,101130.56
2022-12-13T17:48:43.577Z,101130.56
2022-12-13T17:51:11.061Z,101135.69
2022-12-13T17:53:39.570Z,101135.69
2022-12-13T17:56:08.323Z,101142.53
2022-12-13T17:58:35.358Z,101131.34
2022-12-13T18:01:22.135Z,101136.56
2022-12-13T18:03:51.266Z,101130.56
2022-12-13T18:06:17.713Z,101132.34
2022-12-13T18:08:45.039Z,101130.56
2022-12-13T18:13:59.090Z,101129.03
2022-12-13T18:16:34.117Z,101126.59
2022-12-13T18:19:07.438Z,101122.50
2022-12-13T18:21:34.393Z,101114.00
2022-12-13T18:24:00.966Z,101121.75
2022-12-13T18:26:27.343Z,101107.88
2022-12-13T18:28:53.764Z,101110.38
2022-12-13T18:31:22.660Z,101112.03
2022-12-13T18:33:50.803Z,101096.56
2022-12-13T18:36:19.028Z,101088.78
2022-12-13T18:38:45.656Z,101094.00
2022-12-13T18:41:15.275Z,101094.00
2022-12-13T18:43:43.474Z,101089.72
2022-12-13T18:46:13.337Z,101094.88
2022-12-13T18:48:39.944Z,101094.88
2022-12-13T18:51:08.347Z,101096.66
2022-12-13T18:53:37.143Z,101100.13
2022-12-13T18:56:06.114Z,101095.03
2022-12-13T18:58:33.227Z,101100.22
2022-12-13T19:01:00.106Z,101088.34
2022-12-13T19:03:27.167Z,101091.03
2022-12-13T19:05:56.531Z,101094.59
2022-12-13T19:08:26.348Z,101083.47
2022-12-13T19:10:54.132Z,101084.41
2022-12-13T19:13:22.683Z,101080.09
2022-12-13T19:15:50.924Z,101074.84
2022-12-13T19:18:17.502Z,101073.97
2022-12-13T19:20:50.957Z,101066.25
2022-12-13T19:23:18.411Z,101066.19
2022-12-13T19:25:48.812Z,101060.03
2022-12-13T19:28:17.483Z,101074.50
2022-12-13T19:30:46.074Z,101078.13
2022-12-13T19:33:13.047Z,101076.63
2022-12-13T19:35:41.341Z,101081.03
2022-12-13T19:38:08.403Z,101069.94
2022-12-13T19:40:34.774Z,101058.75
2022-12-13T19:43:01.144Z,101052.72
2022-12-13T19:45:27.513Z,101041.44
2022-12-13T19:47:53.879Z,101035.41
2022-12-13T19:50:20.276Z,101037.88
2022-12-13T19:52:46.663Z,101034.31
2022-12-13T19:55:13.087Z,101021.31
2022-12-13T19:57:39.739Z,101025.53
2022-12-13T20:00:06.858Z,101028.84
2022-12-13T20:02:33.295Z,101028.09
2022-12-13T20:04:59.727Z,101027.38
2022-12-13T20:07:26.639Z,101020.53
2022-12-13T20:09:53.134Z,101012.81
2022-12-13T20:12:20.958Z,101007.66
2022-12-13T20:14:47.408Z,101006.66
2022-12-13T20:17:13.782Z,100991.94
2022-12-13T20:19:40.173Z,100996.94
2022-12-13T20:22:06.520Z,100996.94
2022-12-13T20:24:32.931Z,101004.75
2022-12-13T20:26:59.426Z,100992.66
2022-12-13T20:29:25.851Z,100997.88
2022-12-13T20:31:53.801Z,100992.81
2022-12-13T20:34:20.537Z,100981.78
2022-12-13T20:36:46.971Z,100979.94
2022-12-13T20:39:14.925Z,100978.00
2022-12-13T20:41:41.477Z,100972.66
2022-12-13T20:44:09.163Z,100966.63
2022-12-13T20:46:36.442Z,100969.13
2022-12-13T20:49:06.008Z,100962.19
2022-12-13T20:51:33.633Z,100960.50
2022-12-13T20:54:00.111Z,100955.41
2022-12-13T20:56:29.329Z,100959.78
2022-12-13T20:58:55.996Z,100961.63
2022-12-13T21:01:34.998Z,100952.22
2022-12-13T21:04:04.809Z,100946.22
2022-12-13T21:06:33.441Z,100945.22
2022-12-13T21:09:02.572Z,100936.41
2022-12-13T21:11:30.762Z,100933.00
2022-12-13T21:14:08.268Z,100926.16
2022-12-13T21:16:36.862Z,100927.91
2022-12-13T21:19:04.327Z,100931.34
2022-12-13T21:21:31.204Z,100923.63
2022-12-13T21:23:58.607Z,100923.63
2022-12-13T21:26:28.763Z,100925.31
2022-12-13T21:29:01.491Z,100917.47
2022-12-13T21:31:29.319Z,100912.25
2022-12-13T21:33:58.424Z,100917.28
2022-12-13T21:36:27.267Z,100905.28
2022-12-13T21:39:02.092Z,100900.13
2022-12-13T21:41:29.027Z,100913.09
2022-12-13T21:43:55.503Z,100918.25
2022-12-13T21:46:41.402Z,100915.69
2022-12-13T21:49:14.167Z,100899.34
2022-12-13T21:51:46.059Z,100898.47
2022-12-13T21:54:14.262Z,100896.66
2022-12-13T21:56:58.911Z,100899.25
2022-12-13T21:59:27.336Z,100905.19
2022-12-13T22:02:34.191Z,100889.72
2022-12-13T22:05:00.536Z,100894.81
2022-12-13T22:07:29.110Z,100900.75
2022-12-13T22:09:56.739Z,100903.28
2022-12-13T22:12:37.753Z,100910.16
2022-12-13T22:15:10.157Z,100888.81
2022-12-13T22:17:37.063Z,100887.97
2022-12-13T22:20:12.441Z,100874.13
2022-12-13T22:22:40.033Z,100860.38
2022-12-13T22:25:07.400Z,100860.50
2022-12-13T22:27:34.102Z,100862.25
2022-12-13T22:30:00.542Z,100864.81
2022-12-13T22:32:29.674Z,100863.94
2022-12-13T22:34:56.224Z,100864.78
2022-12-13T22:37:23.259Z,100857.03
2022-12-13T22:39:49.896Z,100856.13
2022-12-13T22:42:16.534Z,100853.44
2022-12-13T22:44:42.919Z,100849.22
2022-12-13T22:47:09.358Z,100850.06
2022-12-13T22:49:35.757Z,100854.25
2022-12-13T22:52:02.158Z,100842.94
2022-12-13T22:54:28.486Z,100839.47
2022-12-13T22:56:55.238Z,100828.22
2022-12-13T22:59:21.598Z,100822.91
2022-12-13T23:01:48.378Z,100825.41
2022-12-13T23:04:14.814Z,100822.81
2022-12-13T23:06:41.482Z,100827.09
2022-12-13T23:09:13.812Z,100835.63
2022-12-13T23:11:58.851Z,100829.63
2022-12-13T23:14:30.682Z,100826.19
2022-12-13T23:16:57.331Z,100822.69
2022-12-13T23:22:10.184Z,100807.28
2022-12-13T23:24:36.746Z,100822.78
2022-12-13T23:27:03.432Z,100812.44
2022-12-13T23:29:29.868Z,100816.78
2022-12-13T23:31:56.278Z,100813.41
2022-12-13T23:34:22.728Z,100801.47
2022-12-13T23:36:49.510Z,100803.34
2022-12-13T23:39:15.871Z,100803.28
2022-12-13T23:41:42.177Z,100796.53
2022-12-13T23:44:09.952Z,100795.72
2022-12-13T23:46:36.556Z,100805.25
2022-12-13T23:49:05.308Z,100795.22
2022-12-13T23:51:32.313Z,100800.47
2022-12-13T23:53:59.025Z,100806.34
2022-12-13T23:56:25.459Z,100798.59
2022-12-13T23:58:51.889Z,100799.44
